sensor_id;sensor_type;location;lat;lon;timestamp;pressure;altitude;pressure_sealevel;temperature;humidity
42431;BME280;71905;47.466;19.024;2024-03-23T00:55:40;100145.03;;;9.12;58.66
42431;BME280;71905;47.466;19.024;2024-03-23T00:58:06;100131.13;;;9.00;59.34
42431;BME280;71905;47.466;19.024;2024-03-23T01:00:33;100133.56;;;8.95;59.39
42431;BME280;71905;47.466;19.024;2024-03-23T01:02:59;100120.81;;;8.97;59.10
42431;BME280;71905;47.466;19.024;2024-03-23T01:05:26;100126.66;;;8.93;59.38
42431;BME280;71905;47.466;19.024;2024-03-23T01:07:52;100124.06;;;8.90;59.32
42431;BME280;71905;47.466;19.024;2024-03-23T01:10:21;100113.66;;;8.82;59.32
42431;BME280;71905;47.466;19.024;2024-03-23T01:12:47;100110.28;;;8.83;59.45
42431;BME280;71905;47.466;19.024;2024-03-23T01:15:14;100112.75;;;8.80;59.28
42431;BME280;71905;47.466;19.024;2024-03-23T01:17:40;100110.00;;;8.72;59.93
42431;BME280;71905;47.466;19.024;2024-03-23T01:20:07;100108.25;;;8.70;59.75
42431;BME280;71905;47.466;19.024;2024-03-23T01:22:33;100110.47;;;8.56;60.31
42431;BME280;71905;47.466;19.024;2024-03-23T01:25:00;100100.44;;;8.62;60.26
42431;BME280;71905;47.466;19.024;2024-03-23T01:27:28;100096.84;;;8.56;60.24
42431;BME280;71905;47.466;19.024;2024-03-23T01:29:55;100096.81;;;8.54;60.47
42431;BME280;71905;47.466;19.024;2024-03-23T01:32:21;100093.31;;;8.51;60.23
42431;BME280;71905;47.466;19.024;2024-03-23T01:34:48;100089.06;;;8.51;60.24
42431;BME280;71905;47.466;19.024;2024-03-23T01:37:14;100090.69;;;8.48;60.28
42431;BME280;71905;47.466;19.024;2024-03-23T01:39:41;100097.34;;;8.43;60.71
42431;BME280;71905;47.466;19.024;2024-03-23T01:42:07;100093.97;;;8.44;60.71
42431;BME280;71905;47.466;19.024;2024-03-23T01:44:35;100091.50;;;8.45;61.00
42431;BME280;71905;47.466;19.024;2024-03-23T01:47:01;100090.50;;;8.40;60.86
42431;BME280;71905;47.466;19.024;2024-03-23T01:49:28;100079.47;;;8.41;61.45
42431;BME280;71905;47.466;19.024;2024-03-23T01:51:55;100073.47;;;8.39;61.57
42431;BME280;71905;47.466;19.024;2024-03-23T01:54:23;100087.91;;;8.39;61.19
42431;BME280;71905;47.466;19.024;2024-03-23T01:56:49;100081.97;;;8.40;61.78
42431;BME280;71905;47.466;19.024;2024-03-23T01:59:16;100083.72;;;8.41;61.78
42431;BME280;71905;47.466;19.024;2024-03-23T02:01:44;100071.03;;;8.44;61.20
42431;BME280;71905;47.466;19.024;2024-03-23T02:04:13;100081.97;;;8.40;61.56
42431;BME280;71905;47.466;19.024;2024-03-23T02:06:39;100080.19;;;8.36;61.34
42431;BME280;71905;47.466;19.024;2024-03-23T02:09:06;100063.09;;;8.32;61.45
42431;BME280;71905;47.466;19.024;2024-03-23T02:11:32;100069.81;;;8.29;61.21
42431;BME280;71905;47.466;19.024;2024-03-23T02:13:59;100068.97;;;8.29;61.22
42431;BME280;71905;47.466;19.024;2024-03-23T02:16:25;100070.53;;;8.25;61.15
42431;BME280;71905;47.466;19.024;2024-03-23T02:18:53;100066.03;;;8.17;61.72
42431;BME280;71905;47.466;19.024;2024-03-23T02:21:19;100063.56;;;8.18;61.24
42431;BME280;71905;47.466;19.024;2024-03-23T02:23:47;100065.09;;;8.13;61.86
42431;BME280;71905;47.466;19.024;2024-03-23T02:26:13;100069.13;;;8.05;61.75
42431;BME280;71905;47.466;19.024;2024-03-23T02:28:41;100055.47;;;8.02;61.92
42431;BME280;71905;47.466;19.024;2024-03-23T02:31:07;100055.28;;;7.96;61.92
42431;BME280;71905;47.466;19.024;2024-03-23T02:33:34;100054.47;;;7.97;62.33
42431;BME280;71905;47.466;19.024;2024-03-23T02:36:04;100050.78;;;7.87;62.53
42431;BME280;71905;47.466;19.024;2024-03-23T02:38:31;100049.13;;;7.88;62.37
42431;BME280;71905;47.466;19.024;2024-03-23T02:41:02;100039.66;;;7.83;62.10
42431;BME280;71905;47.466;19.024;2024-03-23T02:43:29;100036.31;;;7.84;62.18
42431;BME280;71905;47.466;19.024;2024-03-23T02:45:55;100037.97;;;7.84;62.55
42431;BME280;71905;47.466;19.024;2024-03-23T02:48:22;100030.41;;;7.87;62.62
42431;BME280;71905;47.466;19.024;2024-03-23T02:50:49;100025.09;;;7.78;62.73
42431;BME280;71905;47.466;19.024;2024-03-23T02:53:16;100026.66;;;7.74;62.74
42431;BME280;71905;47.466;19.024;2024-03-23T02:55:42;100026.66;;;7.73;63.07
42431;BME280;71905;47.466;19.024;2024-03-23T02:58:10;100029.84;;;7.66;63.53
42431;BME280;71905;47.466;19.024;2024-03-23T03:00:37;100023.97;;;7.68;63.13
42431;BME280;71905;47.466;19.024;2024-03-23T03:03:04;100028.28;;;7.71;63.51
42431;BME280;71905;47.466;19.024;2024-03-23T03:05:30;100022.28;;;7.69;63.30
42431;BME280;71905;47.466;19.024;2024-03-23T03:07:57;100021.38;;;7.67;63.07
42431;BME280;71905;47.466;19.024;2024-03-23T03:10:23;100018.00;;;7.68;63.87
42431;BME280;71905;47.466;19.024;2024-03-23T03:12:50;100016.25;;;7.65;63.72
42431;BME280;71905;47.466;19.024;2024-03-23T03:15:18;100020.81;;;7.47;64.12
42431;BME280;71905;47.466;19.024;2024-03-23T03:17:45;100018.22;;;7.44;63.95
42431;BME280;71905;47.466;19.024;2024-03-23T03:20:11;100014.81;;;7.45;63.56
42431;BME280;71905;47.466;19.024;2024-03-23T03:22:39;100015.59;;;7.43;63.54
42431;BME280;71905;47.466;19.024;2024-03-23T03:25:06;100016.38;;;7.40;63.55
42431;BME280;71905;47.466;19.024;2024-03-23T03:27:33;100016.25;;;7.35;64.16
42431;BME280;71905;47.466;19.024;2024-03-23T03:30:00;100015.34;;;7.33;64.32
42431;BME280;71905;47.466;19.024;2024-03-23T03:32:29;100005.88;;;7.29;64.11
42431;BME280;71905;47.466;19.024;2024-03-23T03:34:56;100007.78;;;7.36;64.58
42431;BME280;71905;47.466;19.024;2024-03-23T03:37:22;100003.66;;;7.40;64.68
42431;BME280;71905;47.466;19.024;2024-03-23T03:39:48;100002.81;;;7.40;63.84
42431;BME280;71905;47.466;19.024;2024-03-23T03:42:15;100000.16;;;7.36;64.92
42431;BME280;71905;47.466;19.024;2024-03-23T03:44:42;100000.19;;;7.38;64.68
42431;BME280;71905;47.466;19.024;2024-03-23T03:47:08;100000.03;;;7.32;64.98
42431;BME280;71905;47.466;19.024;2024-03-23T03:49:36;99993.16;;;7.29;64.60
42431;BME280;71905;47.466;19.024;2024-03-23T03:52:03;100000.03;;;7.32;65.02
42431;BME280;71905;47.466;19.024;2024-03-23T03:54:30;99989.94;;;7.35;64.23
42431;BME280;71905;47.466;19.024;2024-03-23T03:56:57;99990.81;;;7.35;64.60
42431;BME280;71905;47.466;19.024;2024-03-23T03:59:23;99990.81;;;7.35;64.16
42431;BME280;71905;47.466;19.024;2024-03-23T04:01:50;99989.00;;;7.31;64.33
42431;BME280;71905;47.466;19.024;2024-03-23T04:04:16;99988.88;;;7.28;64.78
42431;BME280;71905;47.466;19.024;2024-03-23T04:06:46;99990.59;;;7.28;64.87
42431;BME280;71905;47.466;19.024;2024-03-23T04:09:11;99986.25;;;7.25;65.03
42431;BME280;71905;47.466;19.024;2024-03-23T04:11:38;99992.13;;;7.23;65.52
42431;BME280;71905;47.466;19.024;2024-03-23T04:14:04;99985.91;;;7.13;65.55
42431;BME280;71905;47.466;19.024;2024-03-23T04:16:34;99983.59;;;7.21;64.96
42431;BME280;71905;47.466;19.024;2024-03-23T04:19:00;99987.72;;;7.17;65.21
42431;BME280;71905;47.466;19.024;2024-03-23T04:21:27;99982.72;;;7.20;65.14
42431;BME280;71905;47.466;19.024;2024-03-23T04:23:54;99975.00;;;7.17;65.43
42431;BME280;71905;47.466;19.024;2024-03-23T04:26:21;99986.09;;;7.19;64.91
42431;BME280;71905;47.466;19.024;2024-03-23T04:28:47;99975.09;;;7.20;65.25
42431;BME280;71905;47.466;19.024;2024-03-23T04:31:14;99970.78;;;7.18;64.65
42431;BME280;71905;47.466;19.024;2024-03-23T04:33:41;99974.91;;;7.14;64.60
42431;BME280;71905;47.466;19.024;2024-03-23T04:36:08;99970.66;;;7.13;64.92
42431;BME280;71905;47.466;19.024;2024-03-23T04:38:35;99972.25;;;7.11;65.53
42431;BME280;71905;47.466;19.024;2024-03-23T04:41:03;99972.38;;;7.14;65.38
42431;BME280;71905;47.466;19.024;2024-03-23T04:43:30;99969.69;;;7.10;65.58
42431;BME280;71905;47.466;19.024;2024-03-23T04:45:57;99979.16;;;7.14;65.30
42431;BME280;71905;47.466;19.024;2024-03-23T04:48:24;99968.78;;;7.08;65.35
42431;BME280;71905;47.466;19.024;2024-03-23T04:50:54;99972.97;;;7.06;65.92
42431;BME280;71905;47.466;19.024;2024-03-23T04:53:23;99968.88;;;7.11;65.38
42431;BME280;71905;47.466;19.024;2024-03-23T04:55:54;99970.59;;;7.12;65.82
42431;BME280;71905;47.466;19.024;2024-03-23T04:58:23;99968.91;;;7.12;66.33
42431;BME280;71905;47.466;19.024;2024-03-23T05:00:53;99976.75;;;7.18;65.62
42431;BME280;71905;47.466;19.024;2024-03-23T05:03:21;99969.91;;;7.17;65.76
42431;BME280;71905;47.466;19.024;2024-03-23T05:05:47;99970.78;;;7.18;66.02
42431;BME280;71905;47.466;19.024;2024-03-23T05:08:14;99967.50;;;7.22;65.45
42431;BME280;71905;47.466;19.024;2024-03-23T05:10:41;99967.44;;;7.20;65.33
42431;BME280;71905;47.466;19.024;2024-03-23T05:13:08;99963.28;;;7.22;65.62
42431;BME280;71905;47.466;19.024;2024-03-23T05:15:36;99964.16;;;7.24;66.16
42431;BME280;71905;47.466;19.024;2024-03-23T05:18:04;99966.03;;;7.30;66.61
42431;BME280;71905;47.466;19.024;2024-03-23T05:20:31;99961.94;;;7.35;66.94
42431;BME280;71905;47.466;19.024;2024-03-23T05:22:58;99964.50;;;7.36;65.93
42431;BME280;71905;47.466;19.024;2024-03-23T05:25:24;99963.63;;;7.34;65.91
42431;BME280;71905;47.466;19.024;2024-03-23T05:27:51;99958.53;;;7.34;66.28
42431;BME280;71905;47.466;19.024;2024-03-23T05:30:16;99954.34;;;7.36;65.90
42431;BME280;71905;47.466;19.024;2024-03-23T05:32:45;99956.19;;;7.41;66.98
42431;BME280;71905;47.466;19.024;2024-03-23T05:35:11;99955.31;;;7.40;66.53
42431;BME280;71905;47.466;19.024;2024-03-23T05:37:38;99948.50;;;7.39;66.64
42431;BME280;71905;47.466;19.024;2024-03-23T05:40:04;99955.53;;;7.49;65.93
42431;BME280;71905;47.466;19.024;2024-03-23T05:42:34;99953.03;;;7.51;67.26
42431;BME280;71905;47.466;19.024;2024-03-23T05:45:00;99944.66;;;7.55;67.07
42431;BME280;71905;47.466;19.024;2024-03-23T05:47:27;99951.53;;;7.57;67.06
42431;BME280;71905;47.466;19.024;2024-03-23T05:49:55;99952.56;;;7.64;67.28
42431;BME280;71905;47.466;19.024;2024-03-23T05:52:22;99947.78;;;7.76;66.75
42431;BME280;71905;47.466;19.024;2024-03-23T05:54:50;99941.81;;;7.74;67.08
42431;BME280;71905;47.466;19.024;2024-03-23T05:57:18;99948.59;;;7.73;66.67
42431;BME280;71905;47.466;19.024;2024-03-23T05:59:44;99945.44;;;7.83;66.24
42431;BME280;71905;47.466;19.024;2024-03-23T06:02:11;99949.66;;;7.83;66.38
42431;BME280;71905;47.466;19.024;2024-03-23T06:04:37;99948.91;;;7.87;66.07
42431;BME280;71905;47.466;19.024;2024-03-23T06:07:05;99945.47;;;7.85;66.38
42431;BME280;71905;47.466;19.024;2024-03-23T06:09:32;99942.06;;;7.84;67.34
42431;BME280;71905;47.466;19.024;2024-03-23T06:11:59;99938.09;;;7.96;66.92
42431;BME280;71905;47.466;19.024;2024-03-23T06:14:25;99933.81;;;7.93;67.17
42431;BME280;71905;47.466;19.024;2024-03-23T06:16:53;99929.75;;;8.01;67.40
42431;BME280;71905;47.466;19.024;2024-03-23T06:19:19;99929.75;;;8.01;67.62
42431;BME280;71905;47.466;19.024;2024-03-23T06:21:46;99927.22;;;8.01;67.24
42431;BME280;71905;47.466;19.024;2024-03-23T06:24:13;99927.66;;;8.19;67.18
42431;BME280;71905;47.466;19.024;2024-03-23T06:26:40;99926.16;;;8.27;67.56
42431;BME280;71905;47.466;19.024;2024-03-23T06:29:06;99917.88;;;8.35;67.54
42431;BME280;71905;47.466;19.024;2024-03-23T06:31:34;99918.13;;;8.45;67.58
42431;BME280;71905;47.466;19.024;2024-03-23T06:34:00;99911.63;;;8.58;67.12
42431;BME280;71905;47.466;19.024;2024-03-23T06:36:27;99904.16;;;8.67;67.26
42431;BME280;71905;47.466;19.024;2024-03-23T06:38:53;99898.44;;;8.77;67.53
42431;BME280;71905;47.466;19.024;2024-03-23T06:41:21;99892.75;;;8.90;67.47
42431;BME280;71905;47.466;19.024;2024-03-23T06:43:47;99904.78;;;8.96;67.72
42431;BME280;71905;47.466;19.024;2024-03-23T06:46:14;99903.16;;;8.99;68.01
42431;BME280;71905;47.466;19.024;2024-03-23T06:48:40;99908.47;;;9.08;67.52
42431;BME280;71905;47.466;19.024;2024-03-23T06:51:07;99900.91;;;9.14;67.41
42431;BME280;71905;47.466;19.024;2024-03-23T06:53:34;99899.28;;;9.18;67.34
42431;BME280;71905;47.466;19.024;2024-03-23T06:56:02;99896.81;;;9.23;67.23
42431;BME280;71905;47.466;19.024;2024-03-23T06:58:29;99896.91;;;9.27;67.21
42431;BME280;71905;47.466;19.024;2024-03-23T07:00:56;99892.69;;;9.29;67.12
42431;BME280;71905;47.466;19.024;2024-03-23T07:03:22;99881.69;;;9.32;66.99
42431;BME280;71905;47.466;19.024;2024-03-23T07:05:49;99881.91;;;9.42;66.95
42431;BME280;71905;47.466;19.024;2024-03-23T07:08:15;99877.53;;;9.37;66.69
42431;BME280;71905;47.466;19.024;2024-03-23T07:10:47;99884.59;;;9.50;66.80
42431;BME280;71905;47.466;19.024;2024-03-23T07:13:13;99879.69;;;9.62;66.14
42431;BME280;71905;47.466;19.024;2024-03-23T07:15:42;99880.75;;;9.75;65.89
42431;BME280;71905;47.466;19.024;2024-03-23T07:18:07;99879.41;;;9.95;65.45
42431;BME280;71905;47.466;19.024;2024-03-23T07:20:36;99871.22;;;10.14;65.46
42431;BME280;71905;47.466;19.024;2024-03-23T07:23:02;99868.06;;;10.32;64.58
42431;BME280;71905;47.466;19.024;2024-03-23T07:25:28;99864.91;;;10.46;63.73
42431;BME280;71905;47.466;19.024;2024-03-23T07:27:55;99867.66;;;10.60;63.30
42431;BME280;71905;47.466;19.024;2024-03-23T07:30:22;99863.56;;;10.73;63.48
42431;BME280;71905;47.466;19.024;2024-03-23T07:32:49;99856.78;;;10.78;62.54
42431;BME280;71905;47.466;19.024;2024-03-23T07:35:16;99848.38;;;10.88;63.50
42431;BME280;71905;47.466;19.024;2024-03-23T07:37:42;99840.81;;;10.98;62.87
42431;BME280;71905;47.466;19.024;2024-03-23T07:40:10;99838.38;;;11.08;63.13
42431;BME280;71905;47.466;19.024;2024-03-23T07:42:37;99834.25;;;11.19;62.04
42431;BME280;71905;47.466;19.024;2024-03-23T07:45:05;99834.47;;;11.40;61.79
42431;BME280;71905;47.466;19.024;2024-03-23T07:47:31;99821.03;;;11.64;60.63
42431;BME280;71905;47.466;19.024;2024-03-23T07:50:00;99822.94;;;11.87;60.57
42431;BME280;71905;47.466;19.024;2024-03-23T07:52:28;99827.31;;;12.01;59.63
42431;BME280;71905;47.466;19.024;2024-03-23T07:54:55;99812.06;;;12.17;59.17
42431;BME280;71905;47.466;19.024;2024-03-23T07:57:21;99814.72;;;12.31;57.52
42431;BME280;71905;47.466;19.024;2024-03-23T07:59:48;99805.38;;;12.44;57.34
42431;BME280;71905;47.466;19.024;2024-03-23T08:02:15;99808.81;;;12.50;57.28
42431;BME280;71905;47.466;19.024;2024-03-23T08:04:41;99813.13;;;12.56;57.13
42431;BME280;71905;47.466;19.024;2024-03-23T08:07:09;99790.09;;;12.66;56.57
42431;BME280;71905;47.466;19.024;2024-03-23T08:09:35;99793.50;;;12.65;56.13
42431;BME280;71905;47.466;19.024;2024-03-23T08:12:02;99792.69;;;12.71;56.62
42431;BME280;71905;47.466;19.024;2024-03-23T08:14:28;99795.25;;;12.72;56.23
42431;BME280;71905;47.466;19.024;2024-03-23T08:16:55;99795.28;;;12.81;56.16
42431;BME280;71905;47.466;19.024;2024-03-23T08:19:21;99799.59;;;12.90;56.09
42431;BME280;71905;47.466;19.024;2024-03-23T08:21:48;99799.59;;;12.93;56.23
42431;BME280;71905;47.466;19.024;2024-03-23T08:24:18;99792.75;;;12.94;56.27
42431;BME280;71905;47.466;19.024;2024-03-23T08:26:46;99802.16;;;12.93;55.54
42431;BME280;71905;47.466;19.024;2024-03-23T08:29:12;99799.66;;;13.04;55.59
42431;BME280;71905;47.466;19.024;2024-03-23T08:31:39;99792.84;;;13.15;55.74
42431;BME280;71905;47.466;19.024;2024-03-23T08:34:05;99784.22;;;13.05;55.83
42431;BME280;71905;47.466;19.024;2024-03-23T08:36:32;99776.56;;;13.11;56.12
42431;BME280;71905;47.466;19.024;2024-03-23T08:38:58;99778.22;;;13.09;56.18
42431;BME280;71905;47.466;19.024;2024-03-23T08:41:27;99779.94;;;13.00;56.21
42431;BME280;71905;47.466;19.024;2024-03-23T08:43:55;99770.53;;;13.02;56.42
42431;BME280;71905;47.466;19.024;2024-03-23T08:46:22;99762.84;;;13.03;56.53
42431;BME280;71905;47.466;19.024;2024-03-23T08:48:48;99758.59;;;13.14;56.24
42431;BME280;71905;47.466;19.024;2024-03-23T08:51:16;99762.03;;;13.27;56.22
42431;BME280;71905;47.466;19.024;2024-03-23T08:53:43;99760.34;;;13.37;55.37
42431;BME280;71905;47.466;19.024;2024-03-23T08:56:10;99755.22;;;13.34;55.74
42431;BME280;71905;47.466;19.024;2024-03-23T08:58:38;99756.06;;;13.43;55.59
42431;BME280;71905;47.466;19.024;2024-03-23T09:01:07;99758.63;;;13.43;55.68
42431;BME280;71905;47.466;19.024;2024-03-23T09:03:34;99751.78;;;13.57;55.83
42431;BME280;71905;47.466;19.024;2024-03-23T09:06:02;99751.78;;;13.75;55.81
42431;BME280;71905;47.466;19.024;2024-03-23T09:08:35;99732.03;;;13.91;55.09
42431;BME280;71905;47.466;19.024;2024-03-23T09:11:07;99726.00;;;14.12;54.76
42431;BME280;71905;47.466;19.024;2024-03-23T09:13:34;99723.34;;;14.32;54.13
42431;BME280;71905;47.466;19.024;2024-03-23T09:16:04;99718.22;;;14.42;53.72
42431;BME280;71905;47.466;19.024;2024-03-23T09:18:31;99707.00;;;14.54;53.06
42431;BME280;71905;47.466;19.024;2024-03-23T09:20:59;99700.88;;;14.76;51.57
42431;BME280;71905;47.466;19.024;2024-03-23T09:23:25;99699.84;;;15.00;51.38
42431;BME280;71905;47.466;19.024;2024-03-23T09:25:52;99699.81;;;15.07;51.30
42431;BME280;71905;47.466;19.024;2024-03-23T09:28:19;99697.13;;;15.23;50.30
42431;BME280;71905;47.466;19.024;2024-03-23T09:30:46;99693.63;;;15.31;50.49
42431;BME280;71905;47.466;19.024;2024-03-23T09:33:13;99687.53;;;15.40;49.71
42431;BME280;71905;47.466;19.024;2024-03-23T09:35:41;99684.84;;;15.56;50.02
42431;BME280;71905;47.466;19.024;2024-03-23T09:38:08;99678.75;;;15.65;49.67
42431;BME280;71905;47.466;19.024;2024-03-23T09:40:39;99681.25;;;15.73;49.13
42431;BME280;71905;47.466;19.024;2024-03-23T09:43:06;99668.31;;;15.74;48.99
42431;BME280;71905;47.466;19.024;2024-03-23T09:45:36;99670.84;;;15.80;49.15
42431;BME280;71905;47.466;19.024;2024-03-23T09:48:05;99662.88;;;16.00;48.12
42431;BME280;71905;47.466;19.024;2024-03-23T09:50:36;99660.03;;;16.21;47.72
42431;BME280;71905;47.466;19.024;2024-03-23T09:53:02;99654.72;;;16.33;47.50
42431;BME280;71905;47.466;19.024;2024-03-23T09:55:29;99653.63;;;16.52;47.47
42431;BME280;71905;47.466;19.024;2024-03-23T09:57:55;99642.22;;;16.69;46.65
42431;BME280;71905;47.466;19.024;2024-03-23T10:00:22;99639.41;;;16.85;45.78
42431;BME280;71905;47.466;19.024;2024-03-23T10:02:49;99636.28;;;17.19;43.86
42431;BME280;71905;47.466;19.024;2024-03-23T10:05:20;99624.78;;;17.36;43.18
42431;BME280;71905;47.466;19.024;2024-03-23T10:07:49;99631.09;;;17.69;42.13
42431;BME280;71905;47.466;19.024;2024-03-23T10:10:16;99624.75;;;17.85;42.00
42431;BME280;71905;47.466;19.024;2024-03-23T10:12:44;99624.78;;;17.84;40.90
42431;BME280;71905;47.466;19.024;2024-03-23T10:15:18;99617.84;;;17.86;41.59
42431;BME280;71905;47.466;19.024;2024-03-23T10:17:45;99607.75;;;17.72;42.40
42431;BME280;71905;47.466;19.024;2024-03-23T10:20:13;99592.31;;;17.68;41.96
42431;BME280;71905;47.466;19.024;2024-03-23T10:22:39;99606.72;;;17.81;41.44
42431;BME280;71905;47.466;19.024;2024-03-23T10:25:11;99600.66;;;17.82;41.16
42431;BME280;71905;47.466;19.024;2024-03-23T10:27:39;99592.75;;;17.90;40.73
42431;BME280;71905;47.466;19.024;2024-03-23T10:30:08;99594.25;;;18.01;38.58
42431;BME280;71905;47.466;19.024;2024-03-23T10:32:34;99595.81;;;18.08;38.97
42431;BME280;71905;47.466;19.024;2024-03-23T10:35:15;99588.78;;;18.15;37.82
42431;BME280;71905;47.466;19.024;2024-03-23T10:37:42;99588.56;;;18.24;37.63
42431;BME280;71905;47.466;19.024;2024-03-23T10:40:12;99575.53;;;18.28;38.41
42431;BME280;71905;47.466;19.024;2024-03-23T10:42:39;99576.38;;;18.30;38.01
42431;BME280;71905;47.466;19.024;2024-03-23T10:45:07;99568.59;;;18.30;38.74
42431;BME280;71905;47.466;19.024;2024-03-23T10:47:34;99560.56;;;18.41;38.52
42431;BME280;71905;47.466;19.024;2024-03-23T10:50:03;99548.56;;;18.37;38.76
42431;BME280;71905;47.466;19.024;2024-03-23T10:52:31;99550.72;;;18.57;39.78
42431;BME280;71905;47.466;19.024;2024-03-23T10:54:58;99549.84;;;18.58;39.72
42431;BME280;71905;47.466;19.024;2024-03-23T10:57:33;99547.78;;;18.72;40.31
42431;BME280;71905;47.466;19.024;2024-03-23T11:00:03;99538.34;;;18.69;39.48
42431;BME280;71905;47.466;19.024;2024-03-23T11:02:30;99543.28;;;18.78;39.36
42431;BME280;71905;47.466;19.024;2024-03-23T11:04:57;99519.84;;;18.83;38.33
42431;BME280;71905;47.466;19.024;2024-03-23T11:07:30;99524.63;;;18.98;38.27
42431;BME280;71905;47.466;19.024;2024-03-23T11:09:58;99522.19;;;18.94;38.77
42431;BME280;71905;47.466;19.024;2024-03-23T11:12:27;99514.16;;;19.03;37.88
42431;BME280;71905;47.466;19.024;2024-03-23T11:15:00;99512.50;;;19.00;37.87
42431;BME280;71905;47.466;19.024;2024-03-23T11:17:28;99506.22;;;19.09;37.05
42431;BME280;71905;47.466;19.024;2024-03-23T11:19:57;99499.06;;;19.18;36.55
42431;BME280;71905;47.466;19.024;2024-03-23T11:22:45;99486.63;;;19.31;35.54
42431;BME280;71905;47.466;19.024;2024-03-23T11:25:14;99485.50;;;19.40;35.25
42431;BME280;71905;47.466;19.024;2024-03-23T11:27:43;99491.31;;;19.49;34.42
42431;BME280;71905;47.466;19.024;2024-03-23T11:30:15;99484.84;;;19.64;34.40
42431;BME280;71905;47.466;19.024;2024-03-23T11:32:42;99480.38;;;19.69;33.78
42431;BME280;71905;47.466;19.024;2024-03-23T11:35:10;99462.56;;;19.57;34.27
42431;BME280;71905;47.466;19.024;2024-03-23T11:37:37;99459.97;;;19.86;34.32
42431;BME280;71905;47.466;19.024;2024-03-23T11:40:17;99466.38;;;20.02;33.97
42431;BME280;71905;47.466;19.024;2024-03-23T11:42:45;99460.03;;;20.11;33.81
42431;BME280;71905;47.466;19.024;2024-03-23T11:45:13;99460.72;;;20.16;33.60
42431;BME280;71905;47.466;19.024;2024-03-23T11:47:40;99454.47;;;20.23;33.60
42431;BME280;71905;47.466;19.024;2024-03-23T11:50:07;99445.19;;;20.42;32.93
42431;BME280;71905;47.466;19.024;2024-03-23T11:52:33;99438.13;;;20.46;32.25
42431;BME280;71905;47.466;19.024;2024-03-23T11:55:04;99437.22;;;20.48;32.75
42431;BME280;71905;47.466;19.024;2024-03-23T11:57:30;99426.81;;;20.21;32.73
42431;BME280;71905;47.466;19.024;2024-03-23T11:59:59;99429.19;;;20.00;32.64
42431;BME280;71905;47.466;19.024;2024-03-23T12:02:25;99429.44;;;19.93;32.67
42431;BME280;71905;47.466;19.024;2024-03-23T12:04:52;99422.63;;;19.90;32.75
42431;BME280;71905;47.466;19.024;2024-03-23T12:07:19;99417.59;;;19.84;32.41
42431;BME280;71905;47.466;19.024;2024-03-23T12:10:02;99406.00;;;19.68;32.32
42431;BME280;71905;47.466;19.024;2024-03-23T12:12:28;99400.19;;;19.60;32.59
42431;BME280;71905;47.466;19.024;2024-03-23T12:15:04;99395.16;;;19.54;32.25
42431;BME280;71905;47.466;19.024;2024-03-23T12:17:32;99389.91;;;19.57;32.01
42431;BME280;71905;47.466;19.024;2024-03-23T12:20:00;99388.25;;;19.54;32.38
42431;BME280;71905;47.466;19.024;2024-03-23T12:22:27;99375.84;;;19.64;32.73
42431;BME280;71905;47.466;19.024;2024-03-23T12:24:55;99380.94;;;19.67;32.59
42431;BME280;71905;47.466;19.024;2024-03-23T12:27:23;99373.19;;;19.65;32.35
42431;BME280;71905;47.466;19.024;2024-03-23T12:29:50;99367.22;;;19.63;32.18
42431;BME280;71905;47.466;19.024;2024-03-23T12:32:18;99373.16;;;19.67;32.21
42431;BME280;71905;47.466;19.024;2024-03-23T12:34:46;99371.00;;;19.80;31.94
42431;BME280;71905;47.466;19.024;2024-03-23T12:37:14;99369.63;;;19.70;31.70
42431;BME280;71905;47.466;19.024;2024-03-23T12:39:43;99352.28;;;19.70;32.09
42431;BME280;71905;47.466;19.024;2024-03-23T12:42:09;99349.00;;;19.65;32.06
42431;BME280;71905;47.466;19.024;2024-03-23T12:44:36;99355.94;;;19.64;31.91
42431;BME280;71905;47.466;19.024;2024-03-23T12:47:02;99352.63;;;19.59;32.14
42431;BME280;71905;47.466;19.024;2024-03-23T12:49:30;99345.69;;;19.60;32.33
42431;BME280;71905;47.466;19.024;2024-03-23T12:51:58;99351.94;;;19.53;32.50
42431;BME280;71905;47.466;19.024;2024-03-23T12:54:27;99346.75;;;19.53;32.79
42431;BME280;71905;47.466;19.024;2024-03-23T12:56:53;99343.63;;;19.42;32.30
42431;BME280;71905;47.466;19.024;2024-03-23T12:59:20;99345.25;;;19.46;32.42
42431;BME280;71905;47.466;19.024;2024-03-23T13:01:46;99334.97;;;19.43;32.03
42431;BME280;71905;47.466;19.024;2024-03-23T13:04:13;99340.97;;;19.45;32.59
42431;BME280;71905;47.466;19.024;2024-03-23T13:06:41;99335.84;;;19.43;31.88
42431;BME280;71905;47.466;19.024;2024-03-23T13:09:08;99331.38;;;19.48;32.07
42431;BME280;71905;47.466;19.024;2024-03-23T13:11:34;99323.13;;;19.33;32.18
42431;BME280;71905;47.466;19.024;2024-03-23T13:14:01;99331.06;;;19.28;32.19
42431;BME280;71905;47.466;19.024;2024-03-23T13:16:30;99319.75;;;19.31;32.16
42431;BME280;71905;47.466;19.024;2024-03-23T13:18:57;99321.50;;;19.30;32.15
42431;BME280;71905;47.466;19.024;2024-03-23T13:21:23;99318.19;;;19.25;32.05
42431;BME280;71905;47.466;19.024;2024-03-23T13:23:52;99315.47;;;19.30;32.17
42431;BME280;71905;47.466;19.024;2024-03-23T13:26:18;99314.84;;;19.21;32.51
42431;BME280;71905;47.466;19.024;2024-03-23T13:28:46;99307.16;;;19.18;32.15
42431;BME280;71905;47.466;19.024;2024-03-23T13:31:12;99311.44;;;19.19;32.57
42431;BME280;71905;47.466;19.024;2024-03-23T13:33:39;99307.16;;;19.18;32.38
42431;BME280;71905;47.466;19.024;2024-03-23T13:36:08;99305.56;;;19.14;32.35
42431;BME280;71905;47.466;19.024;2024-03-23T13:38:35;99302.13;;;19.14;32.45
42431;BME280;71905;47.466;19.024;2024-03-23T13:41:03;99302.97;;;19.14;32.39
42431;BME280;71905;47.466;19.024;2024-03-23T13:43:32;99299.59;;;19.11;32.61
42431;BME280;71905;47.466;19.024;2024-03-23T13:46:02;99294.34;;;19.14;32.55
42431;BME280;71905;47.466;19.024;2024-03-23T13:48:29;99288.34;;;19.12;32.77